Thunder radar more information blitzortung!


Radar de pluja more information rain snow radar


Visita la nostra xarxa de llocs de meteo:

Template documentation
and downloads

And another site



No particular awareness of the weather is required.    There are no Weather-warnings

Pagina Historial Weather Underground text

Diari Resum Agost 8, 2017 Unitats:  Imperial    Mètric   Tant
« Previous Dia
SegĂźent Dia »
Diari Setmana Mensual Anual Personalitzada
  Maxima: Minima: Media:
Temperatura: 83.5 °F 67.1 °F 76.5 °F
Punt de rosada: 73 °F 56.1 °F 64 °F
Humitat: 80 % 50 % 66 %
Wind Speed: 16.1 mph 0 mph 5 mph
RĂ fegues de vent: 16.1 mph - -
Vent:- - East
Pression baro: 30 in 29.7 in -
Precipitacions: 0 in    
Historical Graphs
 
 
Dades de taula per Agost 8, 2017
Temps Temperatura Punt de rosada Pression baro Vent Wind Speed RĂ fegues de vent Humitat Rainfall Rate (Hourly)
00:03 77 °F 66.6 °F 29.8 in North 3.5 mph 3.5 mph 70 % 0 in
00:05 77 °F 69.6 °F 29.8 in North 2 mph 4 mph 78 % 0 in
00:08 77 °F 66.6 °F 29.8 in NNE 2.3 mph 2.3 mph 70 % 0 in
00:15 77 °F 70 °F 29.8 in NNE 3 mph 6 mph 79 % 0 in
00:25 76.8 °F 70.2 °F 29.7 in NE 2 mph 3 mph 80 % 0 in
00:35 77 °F 70.3 °F 29.7 in NE 1 mph 3 mph 80 % 0 in
00:45 77 °F 70 °F 29.7 in NE 2 mph 3 mph 79 % 0 in
00:55 77.2 °F 70.5 °F 29.7 in NE 2 mph 4 mph 80 % 0 in
01:05 77.2 °F 70.5 °F 29.7 in NE 2 mph 3 mph 80 % 0 in
01:15 77.2 °F 70.5 °F 29.7 in NE 1 mph 2 mph 80 % 0 in
01:25 77.2 °F 70.5 °F 29.7 in NE 1 mph 3 mph 80 % 0 in
01:35 77.4 °F 70.7 °F 29.7 in NE 2 mph 2 mph 80 % 0 in
01:45 77.4 °F 70.7 °F 29.7 in ENE 2 mph 3 mph 80 % 0 in
01:55 77.2 °F 70.2 °F 29.7 in ENE 2 mph 2 mph 79 % 0 in
02:05 77.2 °F 70.2 °F 29.7 in NE 1 mph 3 mph 79 % 0 in
02:15 76.8 °F 69.4 °F 29.7 in NE 3 mph 3 mph 78 % 0 in
02:25 76.8 °F 69.1 °F 29.8 in NNE 1 mph 2 mph 77 % 0 in
02:35 76.6 °F 68.9 °F 29.8 in North 1 mph 3 mph 77 % 0 in
02:45 76.6 °F 68.5 °F 29.8 in NNE 2 mph 2 mph 76 % 0 in
02:55 76.8 °F 68.7 °F 29.8 in NE 2 mph 3 mph 76 % 0 in
03:05 77 °F 68.2 °F 29.8 in NNE 1 mph 2 mph 74 % 0 in
03:15 77 °F 67.6 °F 29.8 in NNE 3 mph 4 mph 73 % 0 in
03:25 77 °F 67.6 °F 29.8 in NNE 3 mph 4 mph 73 % 0 in
03:35 77.5 °F 68.2 °F 29.8 in NE 3 mph 3 mph 73 % 0 in
03:45 77.7 °F 68.4 °F 29.8 in NE 2 mph 2 mph 73 % 0 in
03:55 79 °F 69.6 °F 29.8 in NE 1 mph 2 mph 73 % 0 in
04:05 79.2 °F 69.4 °F 29.8 in ENE 1 mph 3 mph 72 % 0 in
04:15 80.1 °F 70.2 °F 29.8 in NE 1 mph 3 mph 72 % 0 in
04:25 80.8 °F 70.5 °F 29.8 in NNE 2 mph 2 mph 71 % 0 in
09:28 80.4 °F 71.1 °F 29.8 in ENE 2.6 mph 2.6 mph 73 % 0 in
09:29 80.2 °F 70.9 °F 29.8 in East 3.8 mph 3.8 mph 73 % 0 in
09:34 80.2 °F 71.2 °F 29.8 in NNE 3.5 mph 3.5 mph 74 % 0 in
09:39 80.1 °F 71.1 °F 29.8 in NE 4.6 mph 4.6 mph 74 % 0 in
09:44 80.1 °F 71.1 °F 29.8 in NNE 3.6 mph 3.6 mph 74 % 0 in
09:49 80.6 °F 71.1 °F 29.8 in ENE 3.5 mph 3.5 mph 73 % 0 in
09:54 81 °F 71.4 °F 29.8 in ESE 3.5 mph 3.5 mph 73 % 0 in
09:59 81 °F 71.4 °F 29.8 in ENE 2.4 mph 2.4 mph 73 % 0 in
10:04 80.6 °F 71.1 °F 29.8 in ENE 3.5 mph 3.5 mph 73 % 0 in
10:09 80.4 °F 71.4 °F 29.8 in East 2.3 mph 2.3 mph 74 % 0 in
10:14 80.6 °F 71.1 °F 29.8 in NE 2.9 mph 2.9 mph 73 % 0 in
10:19 80.8 °F 71.2 °F 29.8 in East 2 mph 2 mph 73 % 0 in
10:24 81.1 °F 71.8 °F 29.8 in ENE 4.6 mph 4.6 mph 73 % 0 in
10:29 81.3 °F 71.4 °F 29.8 in Calm     72 % 0 in
10:34 82.8 °F 72.9 °F 29.8 in ENE 3.5 mph 3.5 mph 72 % 0 in
10:39 83.5 °F 73 °F 29.8 in ESE 3.1 mph 3.1 mph 71 % 0 in
10:44 82.8 °F 72.3 °F 29.8 in WSW 1.6 mph   71 % 0 in
10:49 82.4 °F 72.5 °F 29.8 in NNW 3.5 mph 3.5 mph 72 % 0 in
10:54 81.5 °F 70 °F 29.8 in NE 3.5 mph 3.5 mph 68 % 0 in
10:59 81.3 °F 68.9 °F 29.8 in NE 3.5 mph 3.5 mph 66 % 0 in
11:04 81.3 °F 68.4 °F 29.8 in ESE 2.3 mph 2.3 mph 65 % 0 in
11:09 81 °F 68.2 °F 29.8 in East 5.4 mph 5.4 mph 65 % 0 in
11:14 79.7 °F 69.4 °F 29.8 in East 5.8 mph 5.8 mph 71 % 0 in
11:19 78.6 °F 68.7 °F 29.8 in ENE 8.1 mph 8.1 mph 72 % 0 in
11:24 77.9 °F 68.2 °F 29.8 in East 8.1 mph 8.1 mph 72 % 0 in
11:29 77.5 °F 68.2 °F 29.8 in East 9.2 mph 9.2 mph 73 % 0 in
11:34 76.8 °F 68.4 °F 29.8 in NE 8.1 mph 8.1 mph 75 % 0 in
11:39 76.3 °F 67.8 °F 29.8 in ESE 6.9 mph 6.9 mph 75 % 0 in
11:44 75.9 °F 68.2 °F 29.8 in ESE 8.7 mph 8.7 mph 77 % 0 in
11:49 75.9 °F 68.2 °F 29.8 in East 9.2 mph 9.2 mph 77 % 0 in
11:54 75.4 °F 68 °F 29.8 in ENE 11.5 mph 11.5 mph 78 % 0 in
11:59 75.2 °F 68.2 °F 29.8 in ESE 10.4 mph 10.4 mph 79 % 0 in
12:04 75.2 °F 68.2 °F 29.8 in NE 12.7 mph 12.7 mph 79 % 0 in
12:09 75.2 °F 68.2 °F 29.8 in ENE 11.5 mph 11.5 mph 79 % 0 in
12:14 75 °F 68.4 °F 29.8 in ESE 8.1 mph 8.1 mph 80 % 0 in
12:19 75 °F 68.4 °F 29.8 in ENE 6.2 mph 6.2 mph 80 % 0 in
12:24 75.6 °F 68.5 °F 29.8 in SE 9.2 mph 9.2 mph 79 % 0 in
12:29 75.2 °F 68.2 °F 29.8 in ESE 10.4 mph 10.4 mph 79 % 0 in
12:34 75.4 °F 68 °F 29.8 in SE 10.4 mph 10.4 mph 78 % 0 in
12:36 75.4 °F 68 °F 29.8 in ESE 8.1 mph 8.1 mph 78 % 0 in
12:41 75.4 °F 68 °F 29.8 in ESE 8.1 mph 8.1 mph 78 % 0 in
12:46 75.4 °F 67.6 °F 29.8 in ESE 9.8 mph 9.8 mph 77 % 0 in
12:51 75.6 °F 67.8 °F 29.8 in ESE 13.8 mph 13.8 mph 77 % 0 in
12:56 75.7 °F 68 °F 29.8 in ESE 12.7 mph 12.7 mph 77 % 0 in
13:01 75.9 °F 67.8 °F 29.8 in ESE 11.5 mph 11.5 mph 76 % 0 in
13:06 76.3 °F 68.2 °F 29.8 in ESE 16.1 mph 16.1 mph 76 % 0 in
13:11 76.6 °F 67.6 °F 29.8 in ESE 12.7 mph 12.7 mph 74 % 0 in
13:16 76.8 °F 67.5 °F 29.8 in ESE 13.8 mph 13.8 mph 73 % 0 in
13:21 76.8 °F 67.5 °F 29.8 in East 9.2 mph 9.2 mph 73 % 0 in
13:26 76.3 °F 66.9 °F 29.8 in ESE 8.1 mph 8.5 mph 73 % 0 in
13:31 76.5 °F 67.6 °F 29.8 in ESE 5.8 mph 5.8 mph 74 % 0 in
13:36 76.3 °F 67.5 °F 29.8 in NNW 4.6 mph 4.6 mph 74 % 0 in
13:41 76.1 °F 67.3 °F 29.8 in ENE 2.3 mph 2.9 mph 74 % 0 in
13:46 75.9 °F 66.9 °F 29.8 in ENE 5.8 mph 5.8 mph 74 % 0 in
13:51 75.9 °F 66.9 °F 29.8 in NNE 5.8 mph 5.8 mph 74 % 0 in
13:56 75.9 °F 67.5 °F 29.8 in North 5.8 mph 5.8 mph 75 % 0 in
14:01 76.3 °F 67.8 °F 29.8 in East 6.9 mph 6.9 mph 75 % 0 in
14:06 75.9 °F 66.9 °F 29.8 in ENE 5.8 mph 5.8 mph 74 % 0 in
14:11 76.3 °F 67.8 °F 29.8 in NNE 4.6 mph 4.6 mph 75 % 0 in
14:16 77 °F 67.6 °F 29.8 in ESE 5.8 mph 5.8 mph 73 % 0 in
14:21 76.6 °F 67.3 °F 29.8 in ESE 6.9 mph 6.9 mph 73 % 0 in
14:26 76.8 °F 67.5 °F 29.8 in NNE 5.8 mph 5.8 mph 73 % 0 in
14:31 77.2 °F 67.5 °F 29.8 in East 4.6 mph 4.6 mph 72 % 0 in
14:36 77.4 °F 67.6 °F 29.8 in ENE 4.6 mph 4.6 mph 72 % 0 in
14:41 77.9 °F 67.6 °F 29.8 in ESE 4.6 mph 4.6 mph 71 % 0 in
14:46 79.2 °F 68.9 °F 29.8 in ESE 5.9 mph 5.9 mph 71 % 0 in
14:51 78.4 °F 67.8 °F 29.8 in ENE 4.6 mph 4.6 mph 70 % 0 in
14:56 79.5 °F 68.5 °F 29.8 in NE 8.1 mph 8.1 mph 69 % 0 in
15:01 79.7 °F 68.5 °F 29.8 in NNE 4.6 mph 4.6 mph 69 % 0 in
15:06 79.5 °F 68 °F 29.8 in ENE 8.1 mph 8.1 mph 68 % 0 in
15:11 79.3 °F 67.5 °F 29.8 in ESE 6.9 mph 6.9 mph 67 % 0 in
15:16 79.9 °F 67.8 °F 29.8 in East 4.6 mph 4.6 mph 67 % 0 in
15:17 79.7 °F 67.8 °F 29.8 in ESE 7.6 mph 7.6 mph 67 % 0 in
15:22 80.2 °F 67.8 °F 29.8 in NE 5.8 mph 5.8 mph 66 % 0 in
15:27 79.9 °F 67.1 °F 29.8 in ENE 6.9 mph 6.9 mph 65 % 0 in
15:32 79.7 °F 66.9 °F 29.8 in North 9.2 mph 9.2 mph 65 % 0 in
15:37 80.2 °F 66.9 °F 29.8 in NNE 9.2 mph 9.2 mph 64 % 0 in
15:42 79.7 °F 66.4 °F 29.8 in ENE 9.2 mph 9.2 mph 64 % 0 in
15:47 79.9 °F 66.6 °F 29.8 in East 6.9 mph 6.9 mph 64 % 0 in
15:52 80.2 °F 66.9 °F 29.8 in East 6.9 mph 6.9 mph 64 % 0 in
15:57 79.9 °F 66.6 °F 29.8 in ESE 6.4 mph 6.4 mph 64 % 0 in
16:02 79.7 °F 66 °F 29.8 in East 8.1 mph 8.1 mph 63 % 0 in
16:07 79.5 °F 65.5 °F 29.8 in ENE 10.4 mph 10.4 mph 62 % 0 in
16:12 79.7 °F 65.5 °F 29.8 in East 8.1 mph 8.1 mph 62 % 0 in
16:17 80.1 °F 65.5 °F 29.8 in WSW 8.1 mph 8.1 mph 61 % 0 in
16:22 80.4 °F 65.3 °F 29.8 in South 5.8 mph 5.8 mph 60 % 0 in
16:27 80.4 °F 65.3 °F 29.8 in NNE 7.8 mph 7.8 mph 60 % 0 in
16:32 80.6 °F 64.6 °F 29.8 in ESE 9.2 mph 9.2 mph 58 % 0 in
16:37 81 °F 64.2 °F 29.8 in SE 8.1 mph 8.1 mph 57 % 0 in
16:42 81.3 °F 64 °F 29.8 in East 9.2 mph 9.2 mph 56 % 0 in
16:47 81 °F 63.9 °F 29.8 in ENE 11.5 mph 11.5 mph 56 % 0 in
16:52 80.8 °F 63.1 °F 29.8 in SE 12.7 mph 12.7 mph 55 % 0 in
16:57 80.2 °F 63.1 °F 29.8 in ESE 12.7 mph 12.7 mph 56 % 0 in
16:58 80.1 °F 63 °F 29.8 in ESE 10.4 mph 10.4 mph 56 % 0 in
17:03 80.8 °F 63.1 °F 29.8 in ESE 6.9 mph 6.9 mph 55 % 0 in
17:08 81 °F 63.3 °F 29.8 in ENE 9.2 mph 9.2 mph 55 % 0 in
17:13 80.6 °F 63 °F 29.8 in SE 8.1 mph 8.1 mph 55 % 0 in
17:18 80.4 °F 62.8 °F 29.8 in SSE 4.6 mph 4.6 mph 55 % 0 in
17:23 80.2 °F 62.6 °F 29.8 in South 8.1 mph 8.1 mph 55 % 0 in
17:28 79.7 °F 62.6 °F 29.8 in SSE 9 mph 9 mph 56 % 0 in
17:33 79.5 °F 62.4 °F 29.8 in East 5.8 mph 5.8 mph 56 % 0 in
17:38 79.9 °F 62.2 °F 29.8 in South 10.4 mph 10.4 mph 55 % 0 in
17:43 79.3 °F 61.2 °F 29.8 in East 9.2 mph 9.2 mph 54 % 0 in
17:48 79 °F 61 °F 29.8 in SE 5.8 mph 5.8 mph 54 % 0 in
17:53 78.8 °F 60.3 °F 29.8 in East 4.9 mph 4.9 mph 53 % 0 in
17:58 78.6 °F 60.1 °F 29.8 in ESE 8.5 mph 8.5 mph 53 % 0 in
18:03 78.4 °F 59.4 °F 29.8 in SE 9.2 mph 9.2 mph 52 % 0 in
18:08 78.3 °F 58.6 °F 29.8 in East 11.5 mph 11.5 mph 51 % 0 in
18:13 78.3 °F 59.2 °F 29.8 in ESE 6.9 mph 6.9 mph 52 % 0 in
18:18 78.4 °F 59.4 °F 29.8 in ESE 10.4 mph 10.4 mph 52 % 0 in
18:23 78.1 °F 59 °F 29.8 in East 10.4 mph 10.4 mph 52 % 0 in
18:28 78.1 °F 58.5 °F 29.8 in ESE 6.9 mph 6.9 mph 51 % 0 in
18:33 78.1 °F 58.5 °F 29.8 in East 11.5 mph 11.5 mph 51 % 0 in
18:38 78.1 °F 58.5 °F 29.8 in ESE 6.9 mph 6.9 mph 51 % 0 in
18:43 78.1 °F 58.5 °F 29.8 in ESE 6.9 mph 6.9 mph 51 % 0 in
18:48 78.1 °F 58.5 °F 29.8 in SE 4.6 mph 4.6 mph 51 % 0 in
18:53 78.1 °F 58.5 °F 29.8 in East 4.9 mph 4.9 mph 51 % 0 in
18:58 77.9 °F 58.3 °F 29.8 in ENE 8.1 mph 8.1 mph 51 % 0 in
19:03 77.7 °F 57.6 °F 29.9 in ESE 10.4 mph 10.4 mph 50 % 0 in
19:08 77.9 °F 57.7 °F 29.9 in South 5.8 mph 5.8 mph 50 % 0 in
19:13 77.7 °F 57.6 °F 29.9 in ESE 8.1 mph 8.1 mph 50 % 0 in
19:18 77.2 °F 57.7 °F 29.9 in ESE 10.5 mph 10.5 mph 51 % 0 in
19:23 77.2 °F 57.7 °F 29.9 in ENE 5.6 mph 5.6 mph 51 % 0 in
19:28 77 °F 57.6 °F 29.9 in SSE 3.5 mph 3.5 mph 51 % 0 in
19:33 77 °F 57.6 °F 29.9 in ENE 5.8 mph 5.8 mph 51 % 0 in
19:38 76.8 °F 57.9 °F 29.9 in East 5.8 mph 5.8 mph 52 % 0 in
19:43 76.6 °F 58.3 °F 29.9 in SSE 4.6 mph 4.6 mph 53 % 0 in
19:48 76.6 °F 58.3 °F 29.9 in ESE 5.8 mph 5.8 mph 53 % 0 in
19:53 76.5 °F 58.1 °F 29.9 in ESE 4.6 mph 4.6 mph 53 % 0 in
19:55 69.8 °F 59.5 °F 30 in WSW 1 mph 2 mph 70 % 0 in
19:58 76.3 °F 57.9 °F 29.9 in SE 4.6 mph 4.6 mph 53 % 0 in
20:03 76.3 °F 58.5 °F 29.9 in East 4.6 mph 4.6 mph 54 % 0 in
20:05 76.1 °F 58.3 °F 29.9 in SE 6.9 mph 6.9 mph 54 % 0 in
20:10 75.9 °F 58.1 °F 29.9 in SE 5.8 mph 5.8 mph 54 % 0 in
20:15 75.9 °F 58.1 °F 29.9 in SE 6.9 mph 6.9 mph 54 % 0 in
20:20 75.7 °F 58.5 °F 29.9 in East 4.6 mph 4.6 mph 55 % 0 in
20:25 75.6 °F 58.3 °F 29.9 in NE 4.6 mph 4.6 mph 55 % 0 in
20:30 75.6 °F 58.3 °F 29.9 in ENE 5.8 mph 5.8 mph 55 % 0 in
20:35 75.4 °F 58.6 °F 29.9 in ESE 5.8 mph 5.8 mph 56 % 0 in
20:37 75.4 °F 58.6 °F 29.9 in ESE 3.5 mph 3.5 mph 56 % 0 in
20:42 75.2 °F 58.5 °F 29.9 in NE 6.9 mph 6.9 mph 56 % 0 in
20:45 68.9 °F 59.5 °F 30 in Calm   2 mph 72 % 0 in
20:47 75 °F 59.2 °F 29.9 in ENE 3.5 mph 3.5 mph 58 % 0 in
20:52 74.8 °F 59.2 °F 29.9 in East 4.6 mph 4.6 mph 58 % 0 in
20:55 68.7 °F 59.7 °F 30 in Calm     73 % 0 in
20:57 74.7 °F 58.8 °F 29.9 in East 5.8 mph 5.8 mph 58 % 0 in
21:02 74.7 °F 59.4 °F 29.9 in SE 3.5 mph 3.5 mph 59 % 0 in
21:05 68.5 °F 59.5 °F 30 in East 1 mph 3 mph 73 % 0 in
21:07 74.5 °F 59.2 °F 29.9 in ENE 3.6 mph 3.6 mph 59 % 0 in
21:12 74.5 °F 59.2 °F 29.9 in ENE 2.6 mph 2.6 mph 59 % 0 in
21:15 68.2 °F 59.2 °F 30 in East 2 mph 3 mph 73 % 0 in
21:17 74.3 °F 59 °F 29.9 in ESE 2.3 mph   59 % 0 in
21:22 74.3 °F 59 °F 29.9 in East 5.8 mph 5.8 mph 59 % 0 in
21:25 67.8 °F 59.2 °F 30 in ENE 1 mph 3 mph 74 % 0 in
21:27 74.1 °F 58.8 °F 29.9 in East 2.9 mph 2.9 mph 59 % 0 in
21:32 73.9 °F 59.2 °F 29.9 in ESE 4.6 mph 4.6 mph 60 % 0 in
21:37 73.8 °F 59 °F 29.9 in ESE 4.6 mph 4.6 mph 60 % 0 in
21:40 67.8 °F 59.5 °F 30 in Calm   2 mph 75 % 0 in
21:42 73.8 °F 59 °F 29.9 in ENE 3.1 mph 3.1 mph 60 % 0 in
21:47 73.6 °F 58.8 °F 29.9 in NNE 2.3 mph 2.3 mph 60 % 0 in
21:50 67.8 °F 59.5 °F 30 in Calm   2 mph 75 % 0 in
21:52 73.4 °F 59.2 °F 29.9 in ESE 3.6 mph 3.6 mph 61 % 0 in
21:57 73.4 °F 59.2 °F 29.9 in East 2.3 mph 2.3 mph 61 % 0 in
22:02 73.4 °F 59.2 °F 29.9 in East 3.5 mph 3.5 mph 61 % 0 in
22:07 73.6 °F 59.4 °F 29.9 in East 4.6 mph 4.6 mph 61 % 0 in
22:10 67.5 °F 59.4 °F 30 in Calm   2 mph 75 % 0 in
22:12 73.6 °F 59.4 °F 29.9 in SW 2.3 mph 2.3 mph 61 % 0 in
22:17 73.4 °F 59.2 °F 29.9 in South 2.3 mph 2.3 mph 61 % 0 in
22:20 67.8 °F 59.5 °F 30 in SW 1 mph 2 mph 75 % 0 in
22:22 73.4 °F 59.2 °F 29.9 in SE 2.4 mph 2.4 mph 61 % 0 in
22:27 73.4 °F 59.2 °F 29.9 in SSW 2.3 mph   61 % 0 in
22:30 67.8 °F 59.2 °F 30 in Calm   2 mph 74 % 0 in
22:32 73.2 °F 59 °F 30 in SW 1.2 mph 1.2 mph 61 % 0 in
22:37 72.9 °F 59.2 °F 30 in SW 2.3 mph 2.3 mph 62 % 0 in
22:40 67.8 °F 58.1 °F 30 in Calm   2 mph 71 % 0 in
22:42 72.5 °F 58.6 °F 30 in Calm     62 % 0 in
22:47 72.5 °F 58.6 °F 29.9 in ENE 1.2 mph 1.4 mph 62 % 0 in
22:50 67.8 °F 57.4 °F 30 in Calm   1 mph 69 % 0 in
22:52 72.3 °F 58.6 °F 29.9 in Calm     62 % 0 in
22:57 72.1 °F 58.8 °F 29.9 in SW 1.2 mph 1.2 mph 63 % 0 in
23:00 67.6 °F 56.3 °F 30 in NE 1 mph 2 mph 67 % 0 in
23:02 72.1 °F 58.8 °F 29.9 in SW 2.3 mph 2.3 mph 63 % 0 in
23:07 72.1 °F 58.8 °F 29.9 in Calm     63 % 0 in
23:10 67.8 °F 56.5 °F 29.9 in East 1 mph 2 mph 67 % 0 in
23:12 72 °F 58.6 °F 29.9 in Calm     63 % 0 in
23:17 72 °F 59.2 °F 30 in NE 2 mph 2 mph 64 % 0 in
23:20 67.6 °F 56.3 °F 29.9 in Calm   2 mph 67 % 0 in
23:22 71.8 °F 58.8 °F 30 in Calm     64 % 0 in
23:27 71.8 °F 58.8 °F 30 in NW 1.2 mph 1.2 mph 64 % 0 in
23:30 67.5 °F 56.5 °F 29.9 in NE 1 mph 2 mph 68 % 0 in
23:32 71.6 °F 58.8 °F 30 in Calm     64 % 0 in
23:37 71.6 °F 59.2 °F 30 in Calm     65 % 0 in
23:40 67.1 °F 56.1 °F 29.9 in SW 1 mph 1 mph 68 % 0 in
23:42 71.4 °F 59.5 °F 30 in Calm     66 % 0 in
23:47 71.2 °F 59.4 °F 30 in Calm     66 % 0 in
23:50 67.1 °F 56.7 °F 29.9 in Calm   1 mph 69 % 0 in
23:52 71.1 °F 59.2 °F 30 in SW 2.3 mph 2.3 mph 66 % 0 in
23:57 70.9 °F 59 °F 30 in SW 1.4 mph 1.4 mph 66 % 0 in
Meteo Sesrovires
Elogis d' Weather Underground - 3.75 mb

Guio original per  Jim McMurry - jmcmurry@mwt.net Adaptat per a la plantilla per  Wim van der Kuil - Leuven-Template.eu

Trobareu la nostra informacio del temps tambe a:

Weather Underground

AWEKAS